sensor_id;sensor_type;location;lat;lon;timestamp;P1;durP1;ratioP1;P2;durP2;ratioP2
823;SDS011;373;49.342;8.146;2022-12-07T00:01:15;6.40;;;5.30;;
823;SDS011;373;49.342;8.146;2022-12-07T00:03:45;5.25;;;4.75;;
823;SDS011;373;49.342;8.146;2022-12-07T00:06:15;5.70;;;5.13;;
823;SDS011;373;49.342;8.146;2022-12-07T00:08:43;6.05;;;4.90;;
823;SDS011;373;49.342;8.146;2022-12-07T00:11:12;5.78;;;5.05;;
823;SDS011;373;49.342;8.146;2022-12-07T00:13:40;6.88;;;5.28;;
823;SDS011;373;49.342;8.146;2022-12-07T00:16:09;5.55;;;4.50;;
823;SDS011;373;49.342;8.146;2022-12-07T00:18:37;5.35;;;4.82;;
823;SDS011;373;49.342;8.146;2022-12-07T00:21:05;6.68;;;5.97;;
823;SDS011;373;49.342;8.146;2022-12-07T00:23:35;5.75;;;5.15;;
823;SDS011;373;49.342;8.146;2022-12-07T00:26:03;4.93;;;4.43;;
823;SDS011;373;49.342;8.146;2022-12-07T00:28:31;6.80;;;5.28;;
823;SDS011;373;49.342;8.146;2022-12-07T00:31:02;4.95;;;4.40;;
823;SDS011;373;49.342;8.146;2022-12-07T00:33:31;7.10;;;5.25;;
823;SDS011;373;49.342;8.146;2022-12-07T00:35:58;5.32;;;4.82;;
823;SDS011;373;49.342;8.146;2022-12-07T00:38:27;6.95;;;5.00;;
823;SDS011;373;49.342;8.146;2022-12-07T00:40:57;7.95;;;5.72;;
823;SDS011;373;49.342;8.146;2022-12-07T00:43:25;6.40;;;5.78;;
823;SDS011;373;49.342;8.146;2022-12-07T00:45:53;6.30;;;5.45;;
823;SDS011;373;49.342;8.146;2022-12-07T00:48:21;7.05;;;6.25;;
823;SDS011;373;49.342;8.146;2022-12-07T00:50:48;7.03;;;6.22;;
823;SDS011;373;49.342;8.146;2022-12-07T00:53:15;7.00;;;6.20;;
823;SDS011;373;49.342;8.146;2022-12-07T00:55:43;6.68;;;5.55;;
823;SDS011;373;49.342;8.146;2022-12-07T00:58:12;5.97;;;5.13;;
823;SDS011;373;49.342;8.146;2022-12-07T01:00:40;7.47;;;6.20;;
823;SDS011;373;49.342;8.146;2022-12-07T01:03:09;7.13;;;5.88;;
823;SDS011;373;49.342;8.146;2022-12-07T01:05:38;6.28;;;5.25;;
823;SDS011;373;49.342;8.146;2022-12-07T01:08:05;5.57;;;4.95;;
823;SDS011;373;49.342;8.146;2022-12-07T01:10:33;6.82;;;5.60;;
823;SDS011;373;49.342;8.146;2022-12-07T01:13:00;7.00;;;5.85;;
823;SDS011;373;49.342;8.146;2022-12-07T01:15:28;5.30;;;4.63;;
823;SDS011;373;49.342;8.146;2022-12-07T01:17:55;7.97;;;4.80;;
823;SDS011;373;49.342;8.146;2022-12-07T01:20:22;4.80;;;4.30;;
823;SDS011;373;49.342;8.146;2022-12-07T01:22:49;5.55;;;4.78;;
823;SDS011;373;49.342;8.146;2022-12-07T01:25:17;4.65;;;4.25;;
823;SDS011;373;49.342;8.146;2022-12-07T01:27:44;5.05;;;4.55;;
823;SDS011;373;49.342;8.146;2022-12-07T01:30:14;6.40;;;5.50;;
823;SDS011;373;49.342;8.146;2022-12-07T01:32:42;5.30;;;4.80;;
823;SDS011;373;49.342;8.146;2022-12-07T01:35:09;5.15;;;4.65;;
823;SDS011;373;49.342;8.146;2022-12-07T01:37:37;5.07;;;4.63;;
823;SDS011;373;49.342;8.146;2022-12-07T01:40:05;6.93;;;4.90;;
823;SDS011;373;49.342;8.146;2022-12-07T01:42:34;5.55;;;4.57;;
823;SDS011;373;49.342;8.146;2022-12-07T01:48:05;5.55;;;4.75;;
823;SDS011;373;49.342;8.146;2022-12-07T01:50:34;4.95;;;4.53;;
823;SDS011;373;49.342;8.146;2022-12-07T01:53:02;5.47;;;4.25;;
823;SDS011;373;49.342;8.146;2022-12-07T01:55:31;7.68;;;4.65;;
823;SDS011;373;49.342;8.146;2022-12-07T01:58:00;4.70;;;4.30;;
823;SDS011;373;49.342;8.146;2022-12-07T02:00:27;4.75;;;4.35;;
823;SDS011;373;49.342;8.146;2022-12-07T02:02:55;4.88;;;4.38;;
823;SDS011;373;49.342;8.146;2022-12-07T02:05:29;6.40;;;5.20;;
823;SDS011;373;49.342;8.146;2022-12-07T02:07:57;6.43;;;4.68;;
823;SDS011;373;49.342;8.146;2022-12-07T02:10:26;5.65;;;5.13;;
823;SDS011;373;49.342;8.146;2022-12-07T02:12:55;7.38;;;4.45;;
823;SDS011;373;49.342;8.146;2022-12-07T02:15:26;5.53;;;4.70;;
823;SDS011;373;49.342;8.146;2022-12-07T02:18:00;5.20;;;4.70;;
823;SDS011;373;49.342;8.146;2022-12-07T02:20:33;5.22;;;4.60;;
823;SDS011;373;49.342;8.146;2022-12-07T02:23:12;4.68;;;4.20;;
823;SDS011;373;49.342;8.146;2022-12-07T02:28:58;6.03;;;4.65;;
823;SDS011;373;49.342;8.146;2022-12-07T02:31:37;4.50;;;4.00;;
823;SDS011;373;49.342;8.146;2022-12-07T02:34:11;5.20;;;4.65;;
823;SDS011;373;49.342;8.146;2022-12-07T02:36:46;5.20;;;4.63;;
823;SDS011;373;49.342;8.146;2022-12-07T02:39:19;4.63;;;4.15;;
823;SDS011;373;49.342;8.146;2022-12-07T02:41:52;5.13;;;4.47;;
823;SDS011;373;49.342;8.146;2022-12-07T02:44:26;4.38;;;3.97;;
823;SDS011;373;49.342;8.146;2022-12-07T02:46:55;4.28;;;3.47;;
823;SDS011;373;49.342;8.146;2022-12-07T02:49:26;4.78;;;4.22;;
823;SDS011;373;49.342;8.146;2022-12-07T02:51:55;4.40;;;4.00;;
823;SDS011;373;49.342;8.146;2022-12-07T02:54:22;3.90;;;3.53;;
823;SDS011;373;49.342;8.146;2022-12-07T02:56:49;4.32;;;3.13;;
823;SDS011;373;49.342;8.146;2022-12-07T02:59:23;4.57;;;3.95;;
823;SDS011;373;49.342;8.146;2022-12-07T03:02:03;3.78;;;3.38;;
823;SDS011;373;49.342;8.146;2022-12-07T03:04:41;3.53;;;3.22;;
823;SDS011;373;49.342;8.146;2022-12-07T03:07:18;4.10;;;3.70;;
823;SDS011;373;49.342;8.146;2022-12-07T03:09:56;4.32;;;3.83;;
823;SDS011;373;49.342;8.146;2022-12-07T03:12:31;4.50;;;4.10;;
823;SDS011;373;49.342;8.146;2022-12-07T03:15:04;3.88;;;3.35;;
823;SDS011;373;49.342;8.146;2022-12-07T03:17:36;4.45;;;3.65;;
823;SDS011;373;49.342;8.146;2022-12-07T03:20:07;4.35;;;3.95;;
823;SDS011;373;49.342;8.146;2022-12-07T03:22:38;4.13;;;3.70;;
823;SDS011;373;49.342;8.146;2022-12-07T03:25:08;3.47;;;3.15;;
823;SDS011;373;49.342;8.146;2022-12-07T03:27:38;3.95;;;3.55;;
823;SDS011;373;49.342;8.146;2022-12-07T03:30:12;3.47;;;3.05;;
823;SDS011;373;49.342;8.146;2022-12-07T03:32:43;4.43;;;4.00;;
823;SDS011;373;49.342;8.146;2022-12-07T03:35:14;4.85;;;3.47;;
823;SDS011;373;49.342;8.146;2022-12-07T03:37:46;5.22;;;4.18;;
823;SDS011;373;49.342;8.146;2022-12-07T03:40:19;3.88;;;3.47;;
823;SDS011;373;49.342;8.146;2022-12-07T03:42:52;4.63;;;3.80;;
823;SDS011;373;49.342;8.146;2022-12-07T03:45:23;4.28;;;3.88;;
823;SDS011;373;49.342;8.146;2022-12-07T03:47:58;4.07;;;3.67;;
823;SDS011;373;49.342;8.146;2022-12-07T03:50:35;4.13;;;3.72;;
823;SDS011;373;49.342;8.146;2022-12-07T03:53:09;4.20;;;3.40;;
823;SDS011;373;49.342;8.146;2022-12-07T03:55:42;4.25;;;3.65;;
823;SDS011;373;49.342;8.146;2022-12-07T03:58:12;5.13;;;3.75;;
823;SDS011;373;49.342;8.146;2022-12-07T04:00:44;4.00;;;3.63;;
823;SDS011;373;49.342;8.146;2022-12-07T04:03:13;3.72;;;3.35;;
823;SDS011;373;49.342;8.146;2022-12-07T04:05:40;4.57;;;3.30;;
823;SDS011;373;49.342;8.146;2022-12-07T04:08:08;3.28;;;2.97;;
823;SDS011;373;49.342;8.146;2022-12-07T04:10:35;3.25;;;2.95;;
823;SDS011;373;49.342;8.146;2022-12-07T04:13:02;4.15;;;2.83;;
823;SDS011;373;49.342;8.146;2022-12-07T04:15:29;7.07;;;3.78;;
823;SDS011;373;49.342;8.146;2022-12-07T04:17:57;3.72;;;3.30;;
823;SDS011;373;49.342;8.146;2022-12-07T04:20:24;3.97;;;2.78;;
823;SDS011;373;49.342;8.146;2022-12-07T04:22:51;3.30;;;2.97;;
823;SDS011;373;49.342;8.146;2022-12-07T04:25:19;2.97;;;2.42;;
823;SDS011;373;49.342;8.146;2022-12-07T04:27:46;3.53;;;3.13;;
823;SDS011;373;49.342;8.146;2022-12-07T04:30:13;3.55;;;3.00;;
823;SDS011;373;49.342;8.146;2022-12-07T04:32:40;3.38;;;3.08;;
823;SDS011;373;49.342;8.146;2022-12-07T04:35:08;3.92;;;3.20;;
823;SDS011;373;49.342;8.146;2022-12-07T04:37:36;3.65;;;3.22;;
823;SDS011;373;49.342;8.146;2022-12-07T04:40:05;3.38;;;2.92;;
823;SDS011;373;49.342;8.146;2022-12-07T04:42:33;3.28;;;2.90;;
823;SDS011;373;49.342;8.146;2022-12-07T04:45:00;5.70;;;3.67;;
823;SDS011;373;49.342;8.146;2022-12-07T04:47:27;5.15;;;3.88;;
823;SDS011;373;49.342;8.146;2022-12-07T04:49:55;3.97;;;3.50;;
823;SDS011;373;49.342;8.146;2022-12-07T04:52:23;4.20;;;3.80;;
823;SDS011;373;49.342;8.146;2022-12-07T04:54:50;6.03;;;4.22;;
823;SDS011;373;49.342;8.146;2022-12-07T04:57:17;5.07;;;4.47;;
823;SDS011;373;49.342;8.146;2022-12-07T04:59:44;5.00;;;4.32;;
823;SDS011;373;49.342;8.146;2022-12-07T05:02:11;6.03;;;4.95;;
823;SDS011;373;49.342;8.146;2022-12-07T05:04:38;6.32;;;4.13;;
823;SDS011;373;49.342;8.146;2022-12-07T05:07:05;5.45;;;4.55;;
823;SDS011;373;49.342;8.146;2022-12-07T05:09:34;5.13;;;4.28;;
823;SDS011;373;49.342;8.146;2022-12-07T05:12:01;4.45;;;4.05;;
823;SDS011;373;49.342;8.146;2022-12-07T05:14:28;5.68;;;4.53;;
823;SDS011;373;49.342;8.146;2022-12-07T05:16:55;4.80;;;4.30;;
823;SDS011;373;49.342;8.146;2022-12-07T05:19:22;3.95;;;3.45;;
823;SDS011;373;49.342;8.146;2022-12-07T05:21:49;5.35;;;4.25;;
823;SDS011;373;49.342;8.146;2022-12-07T05:24:16;4.68;;;4.13;;
823;SDS011;373;49.342;8.146;2022-12-07T05:26:45;5.10;;;3.97;;
823;SDS011;373;49.342;8.146;2022-12-07T05:29:13;5.97;;;4.80;;
823;SDS011;373;49.342;8.146;2022-12-07T05:31:41;4.57;;;4.18;;
823;SDS011;373;49.342;8.146;2022-12-07T05:34:08;6.10;;;4.45;;
823;SDS011;373;49.342;8.146;2022-12-07T05:36:36;5.28;;;4.47;;
823;SDS011;373;49.342;8.146;2022-12-07T05:39:03;5.63;;;4.65;;
823;SDS011;373;49.342;8.146;2022-12-07T05:41:30;6.43;;;4.53;;
823;SDS011;373;49.342;8.146;2022-12-07T05:44:16;6.65;;;4.45;;
823;SDS011;373;49.342;8.146;2022-12-07T05:46:43;4.47;;;3.78;;
823;SDS011;373;49.342;8.146;2022-12-07T05:49:10;4.53;;;4.07;;
823;SDS011;373;49.342;8.146;2022-12-07T05:51:37;6.00;;;5.18;;
823;SDS011;373;49.342;8.146;2022-12-07T05:54:04;5.43;;;4.68;;
823;SDS011;373;49.342;8.146;2022-12-07T05:56:31;6.10;;;4.63;;
823;SDS011;373;49.342;8.146;2022-12-07T05:58:58;5.78;;;4.82;;
823;SDS011;373;49.342;8.146;2022-12-07T06:01:44;7.43;;;5.53;;
823;SDS011;373;49.342;8.146;2022-12-07T06:04:11;5.35;;;4.70;;
823;SDS011;373;49.342;8.146;2022-12-07T06:06:38;4.72;;;4.15;;
823;SDS011;373;49.342;8.146;2022-12-07T06:09:05;6.70;;;6.00;;
823;SDS011;373;49.342;8.146;2022-12-07T06:11:32;5.55;;;4.97;;
823;SDS011;373;49.342;8.146;2022-12-07T06:14:17;6.22;;;5.35;;
823;SDS011;373;49.342;8.146;2022-12-07T06:16:45;5.93;;;5.25;;
823;SDS011;373;49.342;8.146;2022-12-07T06:19:12;5.97;;;5.38;;
823;SDS011;373;49.342;8.146;2022-12-07T06:21:39;6.13;;;5.53;;
823;SDS011;373;49.342;8.146;2022-12-07T06:24:07;6.57;;;5.63;;
823;SDS011;373;49.342;8.146;2022-12-07T06:26:37;6.57;;;5.75;;
823;SDS011;373;49.342;8.146;2022-12-07T06:29:04;5.78;;;5.18;;
823;SDS011;373;49.342;8.146;2022-12-07T06:31:31;6.03;;;5.43;;
823;SDS011;373;49.342;8.146;2022-12-07T06:34:00;5.15;;;4.45;;
823;SDS011;373;49.342;8.146;2022-12-07T06:36:28;5.95;;;4.50;;
823;SDS011;373;49.342;8.146;2022-12-07T06:38:56;6.07;;;5.47;;
823;SDS011;373;49.342;8.146;2022-12-07T06:41:23;5.68;;;5.03;;
823;SDS011;373;49.342;8.146;2022-12-07T06:43:50;6.45;;;4.97;;
823;SDS011;373;49.342;8.146;2022-12-07T06:46:18;6.20;;;5.22;;
823;SDS011;373;49.342;8.146;2022-12-07T06:48:46;7.13;;;5.35;;
823;SDS011;373;49.342;8.146;2022-12-07T06:51:14;6.93;;;5.47;;
823;SDS011;373;49.342;8.146;2022-12-07T06:53:42;6.30;;;5.68;;
823;SDS011;373;49.342;8.146;2022-12-07T06:56:09;5.80;;;4.72;;
823;SDS011;373;49.342;8.146;2022-12-07T06:58:36;6.55;;;5.82;;
823;SDS011;373;49.342;8.146;2022-12-07T07:01:07;6.43;;;5.38;;
823;SDS011;373;49.342;8.146;2022-12-07T07:03:40;6.22;;;5.53;;
823;SDS011;373;49.342;8.146;2022-12-07T07:06:07;7.72;;;5.88;;
823;SDS011;373;49.342;8.146;2022-12-07T07:08:36;8.10;;;6.88;;
823;SDS011;373;49.342;8.146;2022-12-07T07:11:04;7.82;;;6.82;;
823;SDS011;373;49.342;8.146;2022-12-07T07:13:31;9.27;;;6.93;;
823;SDS011;373;49.342;8.146;2022-12-07T07:15:59;8.40;;;6.57;;
823;SDS011;373;49.342;8.146;2022-12-07T07:18:26;7.35;;;6.65;;
823;SDS011;373;49.342;8.146;2022-12-07T07:20:53;7.50;;;6.32;;
823;SDS011;373;49.342;8.146;2022-12-07T07:23:21;10.77;;;7.72;;
823;SDS011;373;49.342;8.146;2022-12-07T07:25:49;7.85;;;6.95;;
823;SDS011;373;49.342;8.146;2022-12-07T07:28:16;8.07;;;6.75;;
823;SDS011;373;49.342;8.146;2022-12-07T07:30:44;9.73;;;7.90;;
823;SDS011;373;49.342;8.146;2022-12-07T07:33:11;9.57;;;7.25;;
823;SDS011;373;49.342;8.146;2022-12-07T07:35:38;8.68;;;7.38;;
823;SDS011;373;49.342;8.146;2022-12-07T07:38:05;8.57;;;7.22;;
823;SDS011;373;49.342;8.146;2022-12-07T07:40:33;8.50;;;7.60;;
823;SDS011;373;49.342;8.146;2022-12-07T07:43:02;10.20;;;8.32;;
823;SDS011;373;49.342;8.146;2022-12-07T07:45:29;9.07;;;8.15;;
823;SDS011;373;49.342;8.146;2022-12-07T07:52:16;8.02;;;7.20;;
823;SDS011;373;49.342;8.146;2022-12-07T07:54:43;11.43;;;8.15;;
823;SDS011;373;49.342;8.146;2022-12-07T07:57:10;8.82;;;7.82;;
823;SDS011;373;49.342;8.146;2022-12-07T07:59:39;9.75;;;7.65;;
823;SDS011;373;49.342;8.146;2022-12-07T08:02:06;10.48;;;8.48;;
823;SDS011;373;49.342;8.146;2022-12-07T08:04:35;9.23;;;8.10;;
823;SDS011;373;49.342;8.146;2022-12-07T08:07:02;9.88;;;8.40;;
823;SDS011;373;49.342;8.146;2022-12-07T08:09:29;9.68;;;8.05;;
823;SDS011;373;49.342;8.146;2022-12-07T08:11:57;10.38;;;8.40;;
823;SDS011;373;49.342;8.146;2022-12-07T08:14:24;10.52;;;8.93;;
823;SDS011;373;49.342;8.146;2022-12-07T08:16:54;10.57;;;9.55;;
823;SDS011;373;49.342;8.146;2022-12-07T08:19:21;11.35;;;8.95;;
823;SDS011;373;49.342;8.146;2022-12-07T08:21:48;9.50;;;8.05;;
823;SDS011;373;49.342;8.146;2022-12-07T08:24:15;10.85;;;8.40;;
823;SDS011;373;49.342;8.146;2022-12-07T08:26:42;12.48;;;9.63;;
823;SDS011;373;49.342;8.146;2022-12-07T08:29:10;10.85;;;8.77;;
823;SDS011;373;49.342;8.146;2022-12-07T08:31:37;14.10;;;9.55;;
823;SDS011;373;49.342;8.146;2022-12-07T08:34:06;9.32;;;8.30;;
823;SDS011;373;49.342;8.146;2022-12-07T08:36:33;9.50;;;8.15;;
823;SDS011;373;49.342;8.146;2022-12-07T08:39:00;9.23;;;7.43;;
823;SDS011;373;49.342;8.146;2022-12-07T08:41:27;8.60;;;7.80;;
823;SDS011;373;49.342;8.146;2022-12-07T08:43:54;8.85;;;7.78;;
823;SDS011;373;49.342;8.146;2022-12-07T08:46:23;8.80;;;7.20;;
823;SDS011;373;49.342;8.146;2022-12-07T08:48:54;11.23;;;8.38;;
823;SDS011;373;49.342;8.146;2022-12-07T08:51:26;10.02;;;7.85;;
823;SDS011;373;49.342;8.146;2022-12-07T08:53:53;11.02;;;8.75;;
823;SDS011;373;49.342;8.146;2022-12-07T08:56:22;9.13;;;8.05;;
823;SDS011;373;49.342;8.146;2022-12-07T08:58:49;7.85;;;6.15;;
823;SDS011;373;49.342;8.146;2022-12-07T09:01:16;7.32;;;6.57;;
823;SDS011;373;49.342;8.146;2022-12-07T09:03:43;6.97;;;6.28;;
823;SDS011;373;49.342;8.146;2022-12-07T09:06:10;8.25;;;7.43;;
823;SDS011;373;49.342;8.146;2022-12-07T09:08:39;8.32;;;7.45;;
823;SDS011;373;49.342;8.146;2022-12-07T09:11:10;8.57;;;7.35;;
823;SDS011;373;49.342;8.146;2022-12-07T09:13:37;8.52;;;7.55;;
823;SDS011;373;49.342;8.146;2022-12-07T09:16:05;10.00;;;7.15;;
823;SDS011;373;49.342;8.146;2022-12-07T09:18:32;5.97;;;5.38;;
823;SDS011;373;49.342;8.146;2022-12-07T09:20:59;6.10;;;4.55;;
823;SDS011;373;49.342;8.146;2022-12-07T09:23:26;4.82;;;4.32;;
823;SDS011;373;49.342;8.146;2022-12-07T09:25:58;4.55;;;4.07;;
823;SDS011;373;49.342;8.146;2022-12-07T09:28:25;6.25;;;5.00;;
823;SDS011;373;49.342;8.146;2022-12-07T09:30:53;5.22;;;3.97;;
823;SDS011;373;49.342;8.146;2022-12-07T09:33:20;6.88;;;5.53;;
823;SDS011;373;49.342;8.146;2022-12-07T09:35:47;8.18;;;7.35;;
823;SDS011;373;49.342;8.146;2022-12-07T09:38:15;5.93;;;5.05;;
823;SDS011;373;49.342;8.146;2022-12-07T09:40:43;6.97;;;5.70;;
823;SDS011;373;49.342;8.146;2022-12-07T09:43:13;8.77;;;5.95;;
823;SDS011;373;49.342;8.146;2022-12-07T09:45:43;5.93;;;5.32;;
823;SDS011;373;49.342;8.146;2022-12-07T09:48:14;7.13;;;6.43;;
823;SDS011;373;49.342;8.146;2022-12-07T09:50:45;8.77;;;7.68;;
823;SDS011;373;49.342;8.146;2022-12-07T09:53:13;7.03;;;5.82;;
823;SDS011;373;49.342;8.146;2022-12-07T09:55:43;6.30;;;5.57;;
823;SDS011;373;49.342;8.146;2022-12-07T09:58:13;8.63;;;5.90;;
823;SDS011;373;49.342;8.146;2022-12-07T10:00:46;6.10;;;4.80;;
823;SDS011;373;49.342;8.146;2022-12-07T10:03:14;6.35;;;5.60;;
823;SDS011;373;49.342;8.146;2022-12-07T10:05:43;6.97;;;6.28;;
823;SDS011;373;49.342;8.146;2022-12-07T10:08:14;6.53;;;5.88;;
823;SDS011;373;49.342;8.146;2022-12-07T10:10:43;6.68;;;5.28;;
823;SDS011;373;49.342;8.146;2022-12-07T10:13:12;5.90;;;5.25;;
823;SDS011;373;49.342;8.146;2022-12-07T10:15:45;5.38;;;4.78;;
823;SDS011;373;49.342;8.146;2022-12-07T10:18:18;5.95;;;5.30;;
823;SDS011;373;49.342;8.146;2022-12-07T10:21:01;6.43;;;5.78;;
823;SDS011;373;49.342;8.146;2022-12-07T10:24:01;4.65;;;4.22;;
823;SDS011;373;49.342;8.146;2022-12-07T10:26:31;8.60;;;4.93;;
823;SDS011;373;49.342;8.146;2022-12-07T10:29:01;7.70;;;5.47;;
823;SDS011;373;49.342;8.146;2022-12-07T10:31:39;5.10;;;4.60;;
823;SDS011;373;49.342;8.146;2022-12-07T10:34:14;5.47;;;4.85;;
823;SDS011;373;49.342;8.146;2022-12-07T10:36:49;10.07;;;5.30;;
823;SDS011;373;49.342;8.146;2022-12-07T10:39:18;9.02;;;8.07;;
823;SDS011;373;49.342;8.146;2022-12-07T10:41:52;6.78;;;4.97;;
823;SDS011;373;49.342;8.146;2022-12-07T10:44:23;5.97;;;5.40;;
823;SDS011;373;49.342;8.146;2022-12-07T10:47:00;5.70;;;5.20;;
823;SDS011;373;49.342;8.146;2022-12-07T10:49:52;4.68;;;4.07;;
823;SDS011;373;49.342;8.146;2022-12-07T10:55:34;5.15;;;4.65;;
823;SDS011;373;49.342;8.146;2022-12-07T10:58:18;5.65;;;4.97;;
823;SDS011;373;49.342;8.146;2022-12-07T11:01:01;5.90;;;4.63;;
823;SDS011;373;49.342;8.146;2022-12-07T11:06:46;5.53;;;4.65;;
823;SDS011;373;49.342;8.146;2022-12-07T11:09:29;5.70;;;4.45;;
823;SDS011;373;49.342;8.146;2022-12-07T11:12:08;8.30;;;6.15;;
823;SDS011;373;49.342;8.146;2022-12-07T11:14:44;7.97;;;6.40;;
823;SDS011;373;49.342;8.146;2022-12-07T11:17:22;5.97;;;5.13;;
823;SDS011;373;49.342;8.146;2022-12-07T11:19:55;4.72;;;4.32;;
823;SDS011;373;49.342;8.146;2022-12-07T11:22:31;7.40;;;5.50;;
823;SDS011;373;49.342;8.146;2022-12-07T11:25:14;4.93;;;4.43;;
823;SDS011;373;49.342;8.146;2022-12-07T11:27:47;4.60;;;3.92;;
823;SDS011;373;49.342;8.146;2022-12-07T11:30:22;5.43;;;4.72;;
823;SDS011;373;49.342;8.146;2022-12-07T11:33:03;6.28;;;4.68;;
823;SDS011;373;49.342;8.146;2022-12-07T11:35:44;5.03;;;4.43;;
823;SDS011;373;49.342;8.146;2022-12-07T11:38:19;4.15;;;3.75;;
823;SDS011;373;49.342;8.146;2022-12-07T11:40:50;4.47;;;3.47;;
823;SDS011;373;49.342;8.146;2022-12-07T11:43:37;3.60;;;3.30;;
823;SDS011;373;49.342;8.146;2022-12-07T11:46:17;4.25;;;2.90;;
823;SDS011;373;49.342;8.146;2022-12-07T11:48:47;3.17;;;2.85;;
823;SDS011;373;49.342;8.146;2022-12-07T11:51:21;4.28;;;3.17;;
823;SDS011;373;49.342;8.146;2022-12-07T11:53:51;4.57;;;3.47;;
823;SDS011;373;49.342;8.146;2022-12-07T11:56:22;3.95;;;3.20;;
823;SDS011;373;49.342;8.146;2022-12-07T11:58:53;4.95;;;4.40;;
823;SDS011;373;49.342;8.146;2022-12-07T12:01:26;3.45;;;2.67;;
823;SDS011;373;49.342;8.146;2022-12-07T12:04:05;4.32;;;2.83;;
823;SDS011;373;49.342;8.146;2022-12-07T12:06:43;3.13;;;2.67;;
823;SDS011;373;49.342;8.146;2022-12-07T12:09:11;4.00;;;3.22;;
823;SDS011;373;49.342;8.146;2022-12-07T12:11:48;4.38;;;2.42;;
823;SDS011;373;49.342;8.146;2022-12-07T12:14:33;3.13;;;2.83;;
823;SDS011;373;49.342;8.146;2022-12-07T12:17:15;3.05;;;2.83;;
823;SDS011;373;49.342;8.146;2022-12-07T12:20:19;3.78;;;2.60;;
823;SDS011;373;49.342;8.146;2022-12-07T12:22:51;3.40;;;3.00;;
823;SDS011;373;49.342;8.146;2022-12-07T12:25:23;4.70;;;2.55;;
823;SDS011;373;49.342;8.146;2022-12-07T12:27:54;4.25;;;3.05;;
823;SDS011;373;49.342;8.146;2022-12-07T12:30:25;3.60;;;2.67;;
823;SDS011;373;49.342;8.146;2022-12-07T12:33:01;3.53;;;3.15;;
823;SDS011;373;49.342;8.146;2022-12-07T12:35:32;3.80;;;3.05;;
823;SDS011;373;49.342;8.146;2022-12-07T12:41:00;3.00;;;2.25;;
823;SDS011;373;49.342;8.146;2022-12-07T12:43:48;2.85;;;2.35;;
823;SDS011;373;49.342;8.146;2022-12-07T12:49:30;2.33;;;2.13;;
823;SDS011;373;49.342;8.146;2022-12-07T13:04:17;2.90;;;2.60;;
823;SDS011;373;49.342;8.146;2022-12-07T13:07:00;2.85;;;2.53;;
823;SDS011;373;49.342;8.146;2022-12-07T13:09:28;2.17;;;1.98;;
823;SDS011;373;49.342;8.146;2022-12-07T13:12:00;2.92;;;2.08;;
823;SDS011;373;49.342;8.146;2022-12-07T13:20:42;2.58;;;2.13;;
823;SDS011;373;49.342;8.146;2022-12-07T13:23:16;6.32;;;2.65;;
823;SDS011;373;49.342;8.146;2022-12-07T13:25:51;3.08;;;2.42;;
823;SDS011;373;49.342;8.146;2022-12-07T13:28:32;5.25;;;3.95;;
823;SDS011;373;49.342;8.146;2022-12-07T13:31:11;2.70;;;2.22;;
823;SDS011;373;49.342;8.146;2022-12-07T13:33:57;3.33;;;2.47;;
823;SDS011;373;49.342;8.146;2022-12-07T13:36:25;5.25;;;2.47;;
823;SDS011;373;49.342;8.146;2022-12-07T13:38:57;3.25;;;1.80;;
823;SDS011;373;49.342;8.146;2022-12-07T13:41:26;3.33;;;2.70;;
823;SDS011;373;49.342;8.146;2022-12-07T13:43:59;3.63;;;2.40;;
823;SDS011;373;49.342;8.146;2022-12-07T13:46:32;3.08;;;2.67;;
823;SDS011;373;49.342;8.146;2022-12-07T13:49:16;3.30;;;3.00;;
823;SDS011;373;49.342;8.146;2022-12-07T13:51:46;2.53;;;2.10;;
823;SDS011;373;49.342;8.146;2022-12-07T13:54:14;4.93;;;2.78;;
823;SDS011;373;49.342;8.146;2022-12-07T13:56:41;2.78;;;2.58;;
823;SDS011;373;49.342;8.146;2022-12-07T13:59:12;3.92;;;3.47;;
823;SDS011;373;49.342;8.146;2022-12-07T14:01:42;2.53;;;2.33;;
823;SDS011;373;49.342;8.146;2022-12-07T14:04:19;3.53;;;3.15;;
823;SDS011;373;49.342;8.146;2022-12-07T14:06:55;5.22;;;2.92;;
823;SDS011;373;49.342;8.146;2022-12-07T14:09:23;5.55;;;3.22;;
823;SDS011;373;49.342;8.146;2022-12-07T14:11:52;5.93;;;2.60;;
823;SDS011;373;49.342;8.146;2022-12-07T14:14:22;4.35;;;3.22;;
823;SDS011;373;49.342;8.146;2022-12-07T14:16:57;3.35;;;3.05;;
823;SDS011;373;49.342;8.146;2022-12-07T14:19:43;5.10;;;3.15;;
823;SDS011;373;49.342;8.146;2022-12-07T14:22:29;2.88;;;2.50;;
823;SDS011;373;49.342;8.146;2022-12-07T14:25:18;3.17;;;2.70;;
823;SDS011;373;49.342;8.146;2022-12-07T14:27:48;2.63;;;2.40;;
823;SDS011;373;49.342;8.146;2022-12-07T14:30:18;2.97;;;2.60;;
823;SDS011;373;49.342;8.146;2022-12-07T14:32:48;4.25;;;2.90;;
823;SDS011;373;49.342;8.146;2022-12-07T14:35:18;2.85;;;2.20;;
823;SDS011;373;49.342;8.146;2022-12-07T14:37:46;3.17;;;2.50;;
823;SDS011;373;49.342;8.146;2022-12-07T14:40:15;4.53;;;3.47;;
823;SDS011;373;49.342;8.146;2022-12-07T14:42:44;3.35;;;2.38;;
823;SDS011;373;49.342;8.146;2022-12-07T14:45:13;3.40;;;2.80;;
823;SDS011;373;49.342;8.146;2022-12-07T14:47:42;3.25;;;2.45;;
823;SDS011;373;49.342;8.146;2022-12-07T14:50:12;4.78;;;2.38;;
823;SDS011;373;49.342;8.146;2022-12-07T14:52:42;3.17;;;2.88;;
823;SDS011;373;49.342;8.146;2022-12-07T14:55:12;2.75;;;2.55;;
823;SDS011;373;49.342;8.146;2022-12-07T14:57:42;3.63;;;3.15;;
823;SDS011;373;49.342;8.146;2022-12-07T15:00:13;4.63;;;2.70;;
823;SDS011;373;49.342;8.146;2022-12-07T15:02:42;4.05;;;2.53;;
823;SDS011;373;49.342;8.146;2022-12-07T15:05:10;3.60;;;2.60;;
823;SDS011;373;49.342;8.146;2022-12-07T15:07:39;3.78;;;2.97;;
823;SDS011;373;49.342;8.146;2022-12-07T15:10:08;3.70;;;2.53;;
823;SDS011;373;49.342;8.146;2022-12-07T15:12:41;3.35;;;2.58;;
823;SDS011;373;49.342;8.146;2022-12-07T15:15:09;3.88;;;3.25;;
823;SDS011;373;49.342;8.146;2022-12-07T15:17:36;3.15;;;2.42;;
823;SDS011;373;49.342;8.146;2022-12-07T15:20:04;2.90;;;2.65;;
823;SDS011;373;49.342;8.146;2022-12-07T15:22:32;5.60;;;3.10;;
823;SDS011;373;49.342;8.146;2022-12-07T15:25:01;4.20;;;3.03;;
823;SDS011;373;49.342;8.146;2022-12-07T15:27:29;4.80;;;3.53;;
823;SDS011;373;49.342;8.146;2022-12-07T15:29:57;3.88;;;3.03;;
823;SDS011;373;49.342;8.146;2022-12-07T15:32:24;4.47;;;4.07;;
823;SDS011;373;49.342;8.146;2022-12-07T15:34:51;6.65;;;4.38;;
823;SDS011;373;49.342;8.146;2022-12-07T15:37:18;4.38;;;3.90;;
823;SDS011;373;49.342;8.146;2022-12-07T15:39:45;4.32;;;3.92;;
823;SDS011;373;49.342;8.146;2022-12-07T15:42:14;4.03;;;3.55;;
823;SDS011;373;49.342;8.146;2022-12-07T15:44:41;4.82;;;4.30;;
823;SDS011;373;49.342;8.146;2022-12-07T15:47:25;7.03;;;4.40;;
823;SDS011;373;49.342;8.146;2022-12-07T15:49:53;5.22;;;3.97;;
823;SDS011;373;49.342;8.146;2022-12-07T15:52:20;4.03;;;3.60;;
823;SDS011;373;49.342;8.146;2022-12-07T15:54:47;5.78;;;4.63;;
823;SDS011;373;49.342;8.146;2022-12-07T15:57:15;5.70;;;4.65;;
823;SDS011;373;49.342;8.146;2022-12-07T15:59:43;6.95;;;4.60;;
823;SDS011;373;49.342;8.146;2022-12-07T16:02:10;5.63;;;4.75;;
823;SDS011;373;49.342;8.146;2022-12-07T16:04:37;5.72;;;5.05;;
823;SDS011;373;49.342;8.146;2022-12-07T16:07:04;5.03;;;4.53;;
823;SDS011;373;49.342;8.146;2022-12-07T16:09:31;4.65;;;4.25;;
823;SDS011;373;49.342;8.146;2022-12-07T16:11:59;5.70;;;4.13;;
823;SDS011;373;49.342;8.146;2022-12-07T16:14:27;8.35;;;4.68;;
823;SDS011;373;49.342;8.146;2022-12-07T16:16:54;4.63;;;4.20;;
823;SDS011;373;49.342;8.146;2022-12-07T16:19:21;5.28;;;4.43;;
823;SDS011;373;49.342;8.146;2022-12-07T16:21:49;5.00;;;4.38;;
823;SDS011;373;49.342;8.146;2022-12-07T16:24:16;5.82;;;5.22;;
823;SDS011;373;49.342;8.146;2022-12-07T16:26:43;9.25;;;5.75;;
823;SDS011;373;49.342;8.146;2022-12-07T16:29:11;6.78;;;5.40;;
823;SDS011;373;49.342;8.146;2022-12-07T16:31:40;5.80;;;5.13;;
823;SDS011;373;49.342;8.146;2022-12-07T16:34:08;5.18;;;4.00;;
823;SDS011;373;49.342;8.146;2022-12-07T16:36:36;6.68;;;5.07;;
823;SDS011;373;49.342;8.146;2022-12-07T16:39:03;5.47;;;4.50;;
823;SDS011;373;49.342;8.146;2022-12-07T16:41:31;5.97;;;4.95;;
823;SDS011;373;49.342;8.146;2022-12-07T16:44:00;7.22;;;5.10;;
823;SDS011;373;49.342;8.146;2022-12-07T16:46:29;5.70;;;4.65;;